Time,TemperatureF,DewpointF,PressureIn,WindDirection,WindDirectionDegrees,WindSpeedMPH,WindSpeedGustMPH,Humidity,HourlyPrecipIn,Conditions,Clouds,dailyrainin,SolarRadiationWatts/m^2,SoftwareType,DateUTC
2013-06-15 00:02:00,67.0,62.0,-100.00,ENE,63,3.0,16.0,84,0.00,,,0.00,0.000000,,2013-06-15 05:02:00,
2013-06-15 00:11:00,67.0,62.0,-100.00,SE,124,4.0,6.0,85,0.00,,,0.00,0.000000,,2013-06-15 05:11:00,
2013-06-15 00:34:00,67.0,62.0,-100.00,SE,124,4.0,6.0,85,0.00,,,0.00,0.000000,,2013-06-15 05:34:00,
2013-06-15 00:43:00,67.0,62.0,-100.00,SE,124,4.0,6.0,85,0.00,,,0.00,0.000000,,2013-06-15 05:43:00,
2013-06-15 00:52:00,67.0,62.0,-100.00,SE,124,4.0,6.0,85,0.00,,,0.00,0.000000,,2013-06-15 05:52:00,
2013-06-15 01:02:00,67.0,62.0,-100.00,SE,124,4.0,6.0,85,0.00,,,0.00,0.000000,,2013-06-15 06:02:00,
2013-06-15 01:11:00,68.0,62.0,-100.00,SSE,155,12.0,18.0,82,0.00,,,0.00,0.000000,,2013-06-15 06:11:00,
2013-06-15 01:33:00,68.0,62.0,-100.00,SSE,155,12.0,18.0,82,0.00,,,0.00,0.000000,,2013-06-15 06:33:00,
2013-06-15 01:43:00,68.0,62.0,-100.00,SSE,155,12.0,18.0,82,0.00,,,0.00,0.000000,,2013-06-15 06:43:00,
2013-06-15 01:53:00,68.0,62.0,-100.00,SSE,155,12.0,18.0,82,0.00,,,0.00,0.000000,,2013-06-15 06:53:00,
2013-06-15 02:01:00,68.0,62.0,-100.00,SSE,155,12.0,18.0,82,0.00,,,0.00,0.000000,,2013-06-15 07:01:00,
2013-06-15 02:11:00,67.0,63.0,-100.00,SSE,158,10.0,15.0,86,0.00,,,0.00,0.000000,,2013-06-15 07:11:00,
2013-06-15 02:33:00,67.0,63.0,-100.00,SSE,158,10.0,15.0,86,0.00,,,0.00,0.000000,,2013-06-15 07:33:00,
2013-06-15 02:43:00,67.0,63.0,-100.00,SSE,158,10.0,15.0,86,0.00,,,0.00,0.000000,,2013-06-15 07:43:00,
2013-06-15 02:53:00,67.0,63.0,-100.00,SSE,158,10.0,15.0,86,0.00,,,0.00,0.000000,,2013-06-15 07:53:00,
2013-06-15 03:02:00,67.0,63.0,-100.00,SSE,158,10.0,15.0,86,0.00,,,0.00,0.000000,,2013-06-15 08:02:00,
2013-06-15 03:11:00,65.0,63.0,-100.00,SSE,160,9.0,13.0,92,0.00,,,0.00,0.000000,,2013-06-15 08:11:00,
2013-06-15 03:33:00,65.0,63.0,-100.00,SSE,160,9.0,13.0,92,0.00,,,0.00,0.000000,,2013-06-15 08:33:00,
2013-06-15 03:43:00,65.0,63.0,-100.00,SSE,160,9.0,13.0,92,0.00,,,0.00,0.000000,,2013-06-15 08:43:00,
2013-06-15 03:53:00,65.0,63.0,-100.00,SSE,160,9.0,13.0,92,0.00,,,0.00,0.000000,,2013-06-15 08:53:00,
2013-06-15 04:02:00,65.0,63.0,-100.00,SSE,160,9.0,13.0,92,0.00,,,0.00,0.000000,,2013-06-15 09:02:00,
2013-06-15 04:11:00,65.0,63.0,-100.00,South,174,8.0,13.0,94,0.00,,,-99.99,0.000000,,2013-06-15 09:11:00,
2013-06-15 04:33:00,65.0,63.0,-100.00,South,174,8.0,13.0,94,0.00,,,-99.99,0.000000,,2013-06-15 09:33:00,
2013-06-15 04:43:00,65.0,63.0,-100.00,South,174,8.0,13.0,94,0.00,,,-99.99,0.000000,,2013-06-15 09:43:00,
2013-06-15 04:52:00,65.0,63.0,-100.00,South,174,8.0,13.0,94,0.00,,,-99.99,0.000000,,2013-06-15 09:52:00,
2013-06-15 05:02:00,65.0,63.0,-100.00,South,174,8.0,13.0,94,0.00,,,-99.99,0.000000,,2013-06-15 10:02:00,
2013-06-15 05:11:00,63.0,62.0,-100.00,SSE,164,6.0,12.0,97,0.00,,,0.00,0.000000,,2013-06-15 10:11:00,
2013-06-15 05:34:00,63.0,62.0,-100.00,SSE,164,6.0,12.0,97,0.00,,,0.00,0.000000,,2013-06-15 10:34:00,
2013-06-15 05:44:00,63.0,62.0,-100.00,SSE,164,6.0,12.0,97,0.00,,,0.00,0.000000,,2013-06-15 10:44:00,
2013-06-15 05:53:00,63.0,62.0,-100.00,SSE,164,6.0,12.0,97,0.00,,,0.00,0.000000,,2013-06-15 10:53:00,
2013-06-15 06:02:00,63.0,62.0,-100.00,SSE,164,6.0,12.0,97,0.00,,,0.00,0.000000,,2013-06-15 11:02:00,
2013-06-15 06:11:00,63.0,62.0,-100.00,SSE,166,3.0,9.0,98,0.00,,,0.00,14.000000,,2013-06-15 11:11:00,
2013-06-15 06:33:00,63.0,62.0,-100.00,SSE,166,3.0,9.0,98,0.00,,,0.00,14.000000,,2013-06-15 11:33:00,
2013-06-15 06:43:00,63.0,62.0,-100.00,SSE,166,3.0,9.0,98,0.00,,,0.00,14.000000,,2013-06-15 11:43:00,
2013-06-15 06:53:00,63.0,62.0,-100.00,SSE,166,3.0,9.0,98,0.00,,,0.00,14.000000,,2013-06-15 11:53:00,
2013-06-15 07:01:00,63.0,62.0,-100.00,SSE,166,3.0,9.0,98,0.00,,,0.00,14.000000,,2013-06-15 12:01:00,
2013-06-15 07:11:00,66.0,64.0,-100.00,SSW,210,6.0,12.0,92,0.00,,,0.00,151.000000,,2013-06-15 12:11:00,
2013-06-15 07:33:00,66.0,64.0,-100.00,SSW,210,6.0,12.0,92,0.00,,,0.00,151.000000,,2013-06-15 12:33:00,
2013-06-15 07:43:00,66.0,64.0,-100.00,SSW,210,6.0,12.0,92,0.00,,,0.00,151.000000,,2013-06-15 12:43:00,
2013-06-15 07:52:00,66.0,64.0,-100.00,SSW,210,6.0,12.0,92,0.00,,,0.00,151.000000,,2013-06-15 12:52:00,
2013-06-15 08:02:00,66.0,64.0,-100.00,SSW,210,6.0,12.0,92,0.00,,,0.00,151.000000,,2013-06-15 13:02:00,
2013-06-15 08:11:00,69.0,65.0,-100.00,WSW,256,8.0,10.0,88,0.00,,,0.00,301.000000,,2013-06-15 13:11:00,
2013-06-15 08:33:00,69.0,65.0,-100.00,WSW,256,8.0,10.0,88,0.00,,,0.00,301.000000,,2013-06-15 13:33:00,
2013-06-15 08:44:00,69.0,65.0,-100.00,WSW,256,8.0,10.0,88,0.00,,,0.00,301.000000,,2013-06-15 13:44:00,
2013-06-15 08:53:00,69.0,65.0,-100.00,WSW,256,8.0,10.0,88,0.00,,,0.00,301.000000,,2013-06-15 13:53:00,
2013-06-15 09:01:00,69.0,65.0,-100.00,WSW,256,8.0,10.0,88,0.00,,,0.00,301.000000,,2013-06-15 14:01:00,
2013-06-15 09:11:00,71.0,66.0,-100.00,NW,308,6.0,11.0,85,0.00,,,0.00,298.000000,,2013-06-15 14:11:00,
2013-06-15 09:34:00,71.0,66.0,-100.00,NW,308,6.0,11.0,85,0.00,,,0.00,298.000000,,2013-06-15 14:34:00,
2013-06-15 09:43:00,71.0,66.0,-100.00,NW,308,6.0,11.0,85,0.00,,,0.00,298.000000,,2013-06-15 14:43:00,
2013-06-15 09:54:00,71.0,66.0,-100.00,NW,308,6.0,11.0,85,0.00,,,0.00,298.000000,,2013-06-15 14:54:00,
2013-06-15 10:02:00,71.0,66.0,-100.00,NW,308,6.0,11.0,85,0.00,,,0.00,298.000000,,2013-06-15 15:02:00,
2013-06-15 10:11:00,73.0,66.0,-100.00,NNW,327,8.0,12.0,79,0.00,,,0.00,381.000000,,2013-06-15 15:11:00,
2013-06-15 10:33:00,73.0,66.0,-100.00,NNW,327,8.0,12.0,79,0.00,,,0.00,381.000000,,2013-06-15 15:33:00,
2013-06-15 10:43:00,73.0,66.0,-100.00,NNW,327,8.0,12.0,79,0.00,,,0.00,381.000000,,2013-06-15 15:43:00,
2013-06-15 10:53:00,73.0,66.0,-100.00,NNW,327,8.0,12.0,79,0.00,,,0.00,381.000000,,2013-06-15 15:53:00,
2013-06-15 11:01:00,73.0,66.0,-100.00,NNW,327,8.0,12.0,79,0.00,,,0.00,381.000000,,2013-06-15 16:01:00,
2013-06-15 11:11:00,74.0,66.0,-100.00,NNW,329,10.0,16.0,76,0.00,,,0.00,399.000000,,2013-06-15 16:11:00,
2013-06-15 11:33:00,74.0,66.0,-100.00,NNW,329,10.0,16.0,76,0.00,,,0.00,399.000000,,2013-06-15 16:33:00,
2013-06-15 11:43:00,74.0,66.0,-100.00,NNW,329,10.0,16.0,76,0.00,,,0.00,399.000000,,2013-06-15 16:43:00,
2013-06-15 11:53:00,74.0,66.0,-100.00,NNW,329,10.0,16.0,76,0.00,,,0.00,399.000000,,2013-06-15 16:53:00,
2013-06-15 12:02:00,74.0,66.0,-100.00,NNW,329,10.0,16.0,76,0.00,,,0.00,399.000000,,2013-06-15 17:02:00,
2013-06-15 12:11:00,75.0,65.0,-100.00,NNW,343,9.0,16.0,70,0.00,,,0.00,419.000000,,2013-06-15 17:11:00,
2013-06-15 12:32:00,75.0,65.0,-100.00,NNW,343,9.0,16.0,70,0.00,,,0.00,419.000000,,2013-06-15 17:32:00,
2013-06-15 12:43:00,75.0,65.0,-100.00,NNW,343,9.0,16.0,70,0.00,,,0.00,419.000000,,2013-06-15 17:43:00,
2013-06-15 12:52:00,75.0,65.0,-100.00,NNW,343,9.0,16.0,70,0.00,,,0.00,419.000000,,2013-06-15 17:52:00,
2013-06-15 13:01:00,75.0,65.0,-100.00,NNW,343,9.0,16.0,70,0.00,,,0.00,419.000000,,2013-06-15 18:01:00,
2013-06-15 13:11:00,74.0,61.0,-100.00,North,9,7.0,14.0,63,0.00,,,0.00,286.000000,,2013-06-15 18:11:00,
2013-06-15 13:33:00,74.0,61.0,-100.00,North,9,7.0,14.0,63,0.00,,,0.00,286.000000,,2013-06-15 18:33:00,
2013-06-15 13:43:00,74.0,61.0,-100.00,North,9,7.0,14.0,63,0.00,,,0.00,286.000000,,2013-06-15 18:43:00,
2013-06-15 13:53:00,74.0,61.0,-100.00,North,9,7.0,14.0,63,0.00,,,0.00,286.000000,,2013-06-15 18:53:00,
2013-06-15 14:01:00,74.0,61.0,-100.00,North,9,7.0,14.0,63,0.00,,,0.00,286.000000,,2013-06-15 19:01:00,
2013-06-15 14:11:00,78.0,63.0,-100.00,North,6,5.0,12.0,60,0.00,,,0.00,455.000000,,2013-06-15 19:11:00,
2013-06-15 14:33:00,78.0,63.0,-100.00,North,6,5.0,12.0,60,0.00,,,0.00,455.000000,,2013-06-15 19:33:00,
2013-06-15 14:43:00,78.0,63.0,-100.00,North,6,5.0,12.0,60,0.00,,,0.00,455.000000,,2013-06-15 19:43:00,
2013-06-15 14:53:00,78.0,63.0,-100.00,North,6,5.0,12.0,60,0.00,,,0.00,455.000000,,2013-06-15 19:53:00,
2013-06-15 15:02:00,78.0,63.0,-100.00,North,6,5.0,12.0,60,0.00,,,0.00,455.000000,,2013-06-15 20:02:00,
2013-06-15 15:11:00,80.0,59.0,-100.00,NNW,340,8.0,12.0,49,0.00,,,0.00,780.000000,,2013-06-15 20:11:00,
2013-06-15 15:33:00,80.0,59.0,-100.00,NNW,340,8.0,12.0,49,0.00,,,0.00,780.000000,,2013-06-15 20:33:00,
2013-06-15 15:43:00,80.0,59.0,-100.00,NNW,340,8.0,12.0,49,0.00,,,0.00,780.000000,,2013-06-15 20:43:00,
2013-06-15 15:53:00,80.0,59.0,-100.00,NNW,340,8.0,12.0,49,0.00,,,0.00,780.000000,,2013-06-15 20:53:00,
2013-06-15 16:01:00,80.0,59.0,-100.00,NNW,340,8.0,12.0,49,0.00,,,0.00,780.000000,,2013-06-15 21:01:00,
2013-06-15 16:11:00,81.0,53.0,-100.00,NNW,342,9.0,13.0,38,0.00,,,0.00,844.000000,,2013-06-15 21:11:00,
2013-06-15 16:34:00,81.0,53.0,-100.00,NNW,342,9.0,13.0,38,0.00,,,0.00,844.000000,,2013-06-15 21:34:00,
2013-06-15 16:42:00,81.0,53.0,-100.00,NNW,342,9.0,13.0,38,0.00,,,0.00,844.000000,,2013-06-15 21:42:00,
2013-06-15 16:53:00,81.0,53.0,-100.00,NNW,342,9.0,13.0,38,0.00,,,0.00,844.000000,,2013-06-15 21:53:00,
2013-06-15 17:01:00,81.0,53.0,-100.00,NNW,342,9.0,13.0,38,0.00,,,0.00,844.000000,,2013-06-15 22:01:00,
2013-06-15 17:11:00,82.0,49.0,-100.00,WNW,299,6.0,11.0,32,0.00,,,0.00,699.000000,,2013-06-15 22:11:00,
2013-06-15 17:33:00,82.0,49.0,-100.00,WNW,299,6.0,11.0,32,0.00,,,0.00,699.000000,,2013-06-15 22:33:00,
2013-06-15 17:43:00,82.0,49.0,-100.00,WNW,299,6.0,11.0,32,0.00,,,0.00,699.000000,,2013-06-15 22:43:00,
2013-06-15 17:53:00,82.0,49.0,-100.00,WNW,299,6.0,11.0,32,0.00,,,0.00,699.000000,,2013-06-15 22:53:00,
2013-06-15 18:02:00,82.0,49.0,-100.00,WNW,299,6.0,11.0,32,0.00,,,0.00,699.000000,,2013-06-15 23:02:00,
2013-06-15 18:11:00,82.0,49.0,-100.00,NNW,332,8.0,13.0,32,0.00,,,0.00,499.000000,,2013-06-15 23:11:00,
2013-06-15 18:33:00,82.0,49.0,-100.00,NNW,332,8.0,13.0,32,0.00,,,0.00,499.000000,,2013-06-15 23:33:00,
2013-06-15 18:43:00,82.0,49.0,-100.00,NNW,332,8.0,13.0,32,0.00,,,0.00,499.000000,,2013-06-15 23:43:00,
2013-06-15 18:53:00,82.0,49.0,-100.00,NNW,332,8.0,13.0,32,0.00,,,0.00,499.000000,,2013-06-15 23:53:00,
2013-06-15 19:01:00,82.0,49.0,-100.00,NNW,332,8.0,13.0,32,0.00,,,0.00,499.000000,,2013-06-16 00:01:00,
2013-06-15 19:11:00,80.0,49.0,-100.00,WNW,294,9.0,13.0,34,0.00,,,-99.99,297.000000,,2013-06-16 00:11:00,
2013-06-15 19:43:00,80.0,49.0,-100.00,WNW,294,9.0,13.0,34,0.00,,,-99.99,297.000000,,2013-06-16 00:43:00,
2013-06-15 19:52:00,80.0,49.0,-100.00,WNW,294,9.0,13.0,34,0.00,,,-99.99,297.000000,,2013-06-16 00:52:00,
2013-06-15 20:01:00,80.0,49.0,-100.00,WNW,294,9.0,13.0,34,0.00,,,-99.99,297.000000,,2013-06-16 01:01:00,
2013-06-15 20:11:00,76.0,51.0,-100.00,WNW,297,6.0,13.0,42,0.00,,,0.00,142.000000,,2013-06-16 01:11:00,
2013-06-15 20:33:00,76.0,51.0,-100.00,WNW,297,6.0,13.0,42,0.00,,,0.00,142.000000,,2013-06-16 01:33:00,
2013-06-15 20:43:00,76.0,51.0,-100.00,WNW,297,6.0,13.0,42,0.00,,,0.00,142.000000,,2013-06-16 01:43:00,
2013-06-15 20:53:00,76.0,51.0,-100.00,WNW,297,6.0,13.0,42,0.00,,,0.00,142.000000,,2013-06-16 01:53:00,
2013-06-15 21:02:00,76.0,51.0,-100.00,WNW,297,6.0,13.0,42,0.00,,,0.00,142.000000,,2013-06-16 02:02:00,
2013-06-15 21:11:00,69.0,51.0,-100.00,WNW,293,3.0,6.0,53,0.00,,,0.00,19.000000,,2013-06-16 02:11:00,
2013-06-15 21:33:00,69.0,51.0,-100.00,WNW,293,3.0,6.0,53,0.00,,,0.00,19.000000,,2013-06-16 02:33:00,
2013-06-15 21:43:00,69.0,51.0,-100.00,WNW,293,3.0,6.0,53,0.00,,,0.00,19.000000,,2013-06-16 02:43:00,
2013-06-15 21:53:00,69.0,51.0,-100.00,WNW,293,3.0,6.0,53,0.00,,,0.00,19.000000,,2013-06-16 02:53:00,
2013-06-15 22:02:00,69.0,51.0,-100.00,WNW,293,3.0,6.0,53,0.00,,,0.00,19.000000,,2013-06-16 03:02:00,
2013-06-15 22:11:00,64.0,52.0,-100.00,WSW,242,3.0,5.0,65,0.00,,,-99.99,1.000000,,2013-06-16 03:11:00,
2013-06-15 22:34:00,64.0,52.0,-100.00,WSW,242,3.0,5.0,65,0.00,,,-99.99,1.000000,,2013-06-16 03:34:00,
2013-06-15 22:43:00,64.0,52.0,-100.00,WSW,242,3.0,5.0,65,0.00,,,-99.99,1.000000,,2013-06-16 03:43:00,
2013-06-15 22:53:00,64.0,52.0,-100.00,WSW,242,3.0,5.0,65,0.00,,,-99.99,1.000000,,2013-06-16 03:53:00,
2013-06-15 23:02:00,64.0,52.0,-100.00,WSW,242,3.0,5.0,65,0.00,,,-99.99,1.000000,,2013-06-16 04:02:00,
2013-06-15 23:11:00,63.0,51.0,-100.00,WSW,249,4.0,6.0,65,0.00,,,0.00,0.000000,,2013-06-16 04:11:00,
2013-06-15 23:34:00,63.0,51.0,-100.00,WSW,249,4.0,6.0,65,0.00,,,0.00,0.000000,,2013-06-16 04:34:00,
2013-06-15 23:43:00,63.0,51.0,-100.00,WSW,249,4.0,6.0,65,0.00,,,0.00,0.000000,,2013-06-16 04:43:00,
2013-06-15 23:53:00,63.0,51.0,-100.00,WSW,249,4.0,6.0,65,0.00,,,0.00,0.000000,,2013-06-16 04:53:00,